Time;durP1;ratioP1;P1;durP2;ratioP2;P2;SDS_P1;SDS_P2;PMS_P1;PMS_P2;Temp;Humidity;BMP_temperature;BMP_pressure;BME280_temperature;BME280_humidity;BME280_pressure;Samples;Min_cycle;Max_cycle;Signal;HPM_P1;HPM_P2
2021/12/11 00:02:10;;;;;;;10.90;1.60;;;;;;;;;;4960702;28;20038;-89
2021/12/11 00:04:42;;;;;;;10.00;1.75;;;;;;;;;;4978009;28;20885;-87
2021/12/11 00:07:11;;;;;;;9.05;1.88;;;;;;;;;;4966132;28;20633;-89
2021/12/11 00:09:38;;;;;;;10.20;1.85;;;;;;;;;;4957685;28;21450;-87
2021/12/11 00:12:15;;;;;;;13.95;1.95;;;;;;;;;;4965318;28;20037;-89
2021/12/11 00:14:43;;;;;;;14.55;2.22;;;;;;;;;;4964932;28;20049;-89
2021/12/11 00:17:11;;;;;;;10.73;2.40;;;;;;;;;;4979319;28;20444;-90
2021/12/11 00:19:39;;;;;;;12.77;2.10;;;;;;;;;;4986700;28;20071;-87
2021/12/11 00:22:08;;;;;;;13.45;2.10;;;;;;;;;;4948298;28;20038;-90
2021/12/11 00:24:39;;;;;;;10.50;1.98;;;;;;;;;;4982637;28;20054;-88
2021/12/11 00:27:11;;;;;;;12.93;1.80;;;;;;;;;;4964860;28;20034;-87
2021/12/11 00:29:39;;;;;;;11.07;1.67;;;;;;;;;;4970525;28;20049;-86
2021/12/11 00:32:08;;;;;;;12.57;1.90;;;;;;;;;;4959893;28;20614;-87
2021/12/11 00:34:37;;;;;;;12.10;1.92;;;;;;;;;;4963361;28;20140;-87
2021/12/11 00:37:05;;;;;;;12.45;2.00;;;;;;;;;;4974808;28;20528;-87
2021/12/11 00:39:37;;;;;;;11.18;1.88;;;;;;;;;;4981609;28;20124;-87
2021/12/11 00:42:16;;;;;;;9.75;1.77;;;;;;;;;;4958970;28;20041;-88
2021/12/11 00:44:50;;;;;;;10.07;2.03;;;;;;;;;;4959106;28;20117;-87
2021/12/11 00:47:25;;;;;;;9.63;1.80;;;;;;;;;;4985635;28;20188;-89
2021/12/11 00:49:54;;;;;;;11.27;1.80;;;;;;;;;;4992425;28;20045;-88
2021/12/11 00:52:35;;;;;;;13.60;2.28;;;;;;;;;;4974381;28;20049;-88
2021/12/11 00:55:06;;;;;;;12.18;2.00;;;;;;;;;;4985298;28;20042;-88
2021/12/11 00:57:34;;;;;;;11.15;1.88;;;;;;;;;;4976771;28;20166;-89
2021/12/11 01:00:07;;;;;;;11.25;1.95;;;;;;;;;;4964470;28;20053;-88
2021/12/11 01:02:35;;;;;;;11.25;2.13;;;;;;;;;;4977839;28;20038;-88
2021/12/11 01:05:03;;;;;;;9.38;1.88;;;;;;;;;;4957931;28;21501;-89
2021/12/11 01:07:32;;;;;;;13.75;2.55;;;;;;;;;;4980440;28;20045;-88
2021/12/11 01:10:06;;;;;;;14.60;3.00;;;;;;;;;;4969785;28;20042;-87
2021/12/11 01:12:50;;;;;;;24.65;3.45;;;;;;;;;;4967001;28;20042;-87
2021/12/11 01:15:36;;;;;;;16.25;2.75;;;;;;;;;;4969396;28;20037;-88
2021/12/11 01:18:22;;;;;;;18.30;3.40;;;;;;;;;;4979979;28;20037;-88
2021/12/11 01:21:13;;;;;;;13.85;2.70;;;;;;;;;;4963733;28;20053;-88
2021/12/11 01:26:11;;;;;;;10.75;1.92;;;;;;;;;;4980512;28;20053;-88
2021/12/11 01:28:39;;;;;;;8.75;1.50;;;;;;;;;;5000290;28;20200;-87
2021/12/11 01:31:07;;;;;;;9.57;1.45;;;;;;;;;;4969798;28;20068;-89
2021/12/11 01:33:34;;;;;;;6.80;1.20;;;;;;;;;;4953684;28;20684;-89
2021/12/11 01:36:01;;;;;;;;;;;;;;;;;;4995223;28;20624;-89
2021/12/11 01:38:31;;;;;;;8.05;1.20;;;;;;;;;;4984239;28;19922;-88
2021/12/11 01:41:00;;;;;;;8.65;1.40;;;;;;;;;;4980453;28;20932;-86
2021/12/11 01:43:30;;;;;;;7.32;1.02;;;;;;;;;;4987338;28;20045;-88
2021/12/11 01:45:59;;;;;;;7.50;1.23;;;;;;;;;;4972897;28;20053;-89
2021/12/11 01:48:28;;;;;;;8.32;1.23;;;;;;;;;;4992929;28;20039;-89
2021/12/11 01:50:58;;;;;;;7.47;1.35;;;;;;;;;;4986990;28;20061;-88
2021/12/11 01:53:28;;;;;;;8.32;1.58;;;;;;;;;;4986764;28;20162;-89
2021/12/11 01:55:59;;;;;;;7.38;1.45;;;;;;;;;;4991475;28;20025;-89
2021/12/11 01:58:29;;;;;;;11.10;1.10;;;;;;;;;;4955922;28;20045;-89
2021/12/11 02:01:03;;;;;;;14.27;1.80;;;;;;;;;;4980041;28;20069;-88
2021/12/11 02:03:31;;;;;;;14.00;3.22;;;;;;;;;;4999295;28;20037;-88
2021/12/11 02:05:58;;;;;;;20.60;3.38;;;;;;;;;;4992487;28;21695;-87
2021/12/11 02:08:30;;;;;;;21.55;3.40;;;;;;;;;;4987205;28;20057;-87
2021/12/11 02:11:08;;;;;;;18.85;2.72;;;;;;;;;;4972005;28;20107;-88
2021/12/11 02:13:48;;;;;;;13.23;2.92;;;;;;;;;;4981812;28;20045;-87
2021/12/11 02:16:22;;;;;;;17.65;2.30;;;;;;;;;;4968957;28;20104;-89
2021/12/11 02:18:52;;;;;;;22.08;2.90;;;;;;;;;;4961032;28;20052;-87
2021/12/11 02:21:23;;;;;;;15.80;2.58;;;;;;;;;;4977934;28;20044;-89
2021/12/11 02:24:04;;;;;;;18.67;3.15;;;;;;;;;;4962372;28;20037;-88
2021/12/11 02:26:35;;;;;;;15.65;2.42;;;;;;;;;;4955266;28;20085;-89
2021/12/11 02:29:08;;;;;;;18.27;2.75;;;;;;;;;;4976900;28;20078;-88
2021/12/11 02:31:46;;;;;;;21.40;3.33;;;;;;;;;;4965568;28;20042;-87
2021/12/11 02:34:23;;;;;;;13.57;2.38;;;;;;;;;;4961651;28;20085;-88
2021/12/11 02:36:54;;;;;;;16.67;3.00;;;;;;;;;;4962615;28;20081;-89
2021/12/11 02:39:30;;;;;;;19.30;3.45;;;;;;;;;;4980968;28;20088;-89
2021/12/11 02:42:32;;;;;;;15.38;2.65;;;;;;;;;;4961106;28;20030;-88
2021/12/11 02:45:17;;;;;;;18.77;3.20;;;;;;;;;;4921044;28;20050;-88
2021/12/11 02:48:14;;;;;;;13.73;2.70;;;;;;;;;;4908703;28;20101;-88
2021/12/11 02:50:43;;;;;;;19.75;3.08;;;;;;;;;;4885904;28;20055;-89
2021/12/11 02:53:20;;;;;;;15.95;2.45;;;;;;;;;;4919054;28;20116;-90
2021/12/11 02:55:47;;;;;;;;;;;;;;;;;;4922386;28;20050;-89
2021/12/11 02:58:17;;;;;;;15.70;2.50;;;;;;;;;;4916776;28;20081;-87
2021/12/11 03:00:47;;;;;;;12.20;2.30;;;;;;;;;;4915806;28;20225;-88
2021/12/11 03:03:15;;;;;;;17.02;2.22;;;;;;;;;;4912139;28;20501;-88
2021/12/11 03:05:51;;;;;;;17.40;2.22;;;;;;;;;;4913671;28;20046;-87
2021/12/11 03:08:19;;;;;;;;;;;;;;;;;;4917294;28;20047;-87
2021/12/11 03:10:54;;;;;;;13.77;2.73;;;;;;;;;;4897755;28;20145;-87
2021/12/11 03:13:22;;;;;;;15.82;2.13;;;;;;;;;;4914129;28;20057;-89
2021/12/11 03:15:50;;;;;;;17.48;3.15;;;;;;;;;;4926256;28;20057;-88
2021/12/11 03:18:16;;;;;;;17.08;2.30;;;;;;;;;;4935876;28;20164;-88
2021/12/11 03:20:44;;;;;;;;;;;;;;;;;;4929820;28;20094;-89
2021/12/11 03:23:11;;;;;;;15.38;2.28;;;;;;;;;;4945215;28;20899;-88
2021/12/11 03:25:43;;;;;;;17.30;2.70;;;;;;;;;;4943652;28;20038;-87
2021/12/11 03:28:10;;;;;;;19.45;3.25;;;;;;;;;;4961790;28;20144;-88
2021/12/11 03:30:41;;;;;;;17.45;3.03;;;;;;;;;;4975800;28;20046;-90
2021/12/11 03:33:14;;;;;;;18.50;3.10;;;;;;;;;;4978824;28;20030;-88
2021/12/11 03:35:41;;;;;;;18.85;3.65;;;;;;;;;;4954524;28;20096;-89
2021/12/11 03:38:10;;;;;;;16.50;2.95;;;;;;;;;;4959193;28;20679;-88
2021/12/11 03:40:39;;;;;;;21.67;3.40;;;;;;;;;;4964472;28;20625;-89
2021/12/11 03:43:09;;;;;;;15.98;3.30;;;;;;;;;;4970127;28;20065;-89
2021/12/11 03:45:37;;;;;;;22.88;3.55;;;;;;;;;;4967988;28;20061;-89
2021/12/11 03:48:10;;;;;;;22.45;3.20;;;;;;;;;;4957740;28;20038;-89
2021/12/11 03:50:39;;;;;;;20.08;3.10;;;;;;;;;;4957916;28;20124;-89
2021/12/11 03:53:06;;;;;;;18.05;3.60;;;;;;;;;;4976760;28;20072;-88
2021/12/11 03:55:36;;;;;;;23.25;3.88;;;;;;;;;;4972530;28;20046;-88
2021/12/11 03:58:07;;;;;;;19.77;3.40;;;;;;;;;;4973498;28;20385;-89
2021/12/11 04:00:40;;;;;;;24.75;3.67;;;;;;;;;;4978389;28;20081;-88
2021/12/11 04:03:08;;;;;;;23.67;3.70;;;;;;;;;;4961394;28;20034;-89
2021/12/11 04:05:38;;;;;;;18.70;3.70;;;;;;;;;;4961386;28;20081;-89
2021/12/11 04:08:06;;;;;;;16.00;2.78;;;;;;;;;;4950353;28;20184;-88
2021/12/11 04:10:33;;;;;;;18.35;2.90;;;;;;;;;;4959519;28;20042;-88
2021/12/11 04:13:03;;;;;;;19.33;3.35;;;;;;;;;;4971744;28;20042;-88
2021/12/11 04:15:30;;;;;;;20.10;3.13;;;;;;;;;;4953934;28;20026;-88
2021/12/11 04:17:57;;;;;;;20.27;3.33;;;;;;;;;;4958625;28;20777;-88
2021/12/11 04:20:25;;;;;;;18.70;3.13;;;;;;;;;;4975956;28;20524;-89
2021/12/11 04:22:52;;;;;;;19.95;3.35;;;;;;;;;;4958772;28;20049;-89
2021/12/11 04:25:20;;;;;;;21.48;3.80;;;;;;;;;;4995536;28;20322;-87
2021/12/11 04:27:47;;;;;;;18.77;3.10;;;;;;;;;;4981519;28;20748;-89
2021/12/11 04:30:15;;;;;;;19.13;3.30;;;;;;;;;;4967435;28;20132;-89
2021/12/11 04:32:42;;;;;;;17.85;2.75;;;;;;;;;;4963849;28;20411;-88
2021/12/11 04:35:11;;;;;;;19.48;3.00;;;;;;;;;;4961796;28;20042;-90
2021/12/11 04:37:38;;;;;;;21.63;3.25;;;;;;;;;;4987037;28;20050;-88
2021/12/11 04:40:07;;;;;;;21.65;3.63;;;;;;;;;;4972571;28;20057;-89
2021/12/11 04:45:30;;;;;;;20.13;3.70;;;;;;;;;;4961607;28;20053;-88
2021/12/11 04:48:05;;;;;;;18.67;2.90;;;;;;;;;;4953487;28;20053;-88
2021/12/11 04:50:53;;;;;;;23.00;3.72;;;;;;;;;;4966034;28;20041;-90
2021/12/11 04:56:37;;;;;;;17.67;3.35;;;;;;;;;;4970045;28;20057;-87
2021/12/11 05:01:37;;;;;;;16.23;3.15;;;;;;;;;;4983971;28;20060;-88
2021/12/11 05:04:49;;;;;;;19.52;3.20;;;;;;;;;;4973207;28;20081;-88
2021/12/11 05:07:23;;;;;;;20.17;3.67;;;;;;;;;;4972317;28;20820;-87
2021/12/11 05:10:17;;;;;;;15.40;2.92;;;;;;;;;;4979271;28;20052;-86
2021/12/11 05:12:46;;;;;;;23.35;3.45;;;;;;;;;;4980571;28;20048;-85
2021/12/11 05:15:17;;;;;;;21.27;3.60;;;;;;;;;;4975862;28;20628;-85
2021/12/11 05:17:44;;;;;;;20.23;3.42;;;;;;;;;;4961136;28;20627;-86
2021/12/11 05:20:12;;;;;;;19.15;3.17;;;;;;;;;;4975951;28;20104;-86
2021/12/11 05:22:40;;;;;;;20.70;3.10;;;;;;;;;;4977893;28;20037;-85
2021/12/11 05:25:10;;;;;;;20.27;3.22;;;;;;;;;;4981005;28;20045;-86
2021/12/11 05:27:39;;;;;;;20.17;3.35;;;;;;;;;;4977000;28;20094;-85
2021/12/11 05:30:08;;;;;;;22.02;4.35;;;;;;;;;;4988410;28;20033;-86
2021/12/11 05:32:36;;;;;;;16.70;2.95;;;;;;;;;;4981832;28;20053;-85
2021/12/11 05:35:04;;;;;;;15.77;3.10;;;;;;;;;;4978398;28;20033;-84
2021/12/11 05:37:30;;;;;;;20.55;3.10;;;;;;;;;;4996353;28;20041;-85
2021/12/11 05:39:57;;;;;;;20.80;2.95;;;;;;;;;;4974285;28;20166;-85
2021/12/11 05:42:24;;;;;;;18.92;3.30;;;;;;;;;;4982160;28;20079;-84
2021/12/11 05:44:51;;;;;;;18.65;3.42;;;;;;;;;;4974458;28;20084;-86
2021/12/11 05:47:20;;;;;;;21.95;3.75;;;;;;;;;;4976398;28;20052;-84
2021/12/11 05:49:47;;;;;;;17.85;3.80;;;;;;;;;;4976099;28;20072;-85
2021/12/11 05:52:14;;;;;;;15.93;2.90;;;;;;;;;;4969217;28;20054;-85
2021/12/11 05:54:43;;;;;;;15.73;2.75;;;;;;;;;;4955522;28;20038;-84
2021/12/11 05:57:13;;;;;;;19.95;2.97;;;;;;;;;;4968464;28;20038;-85
2021/12/11 05:59:42;;;;;;;13.98;2.47;;;;;;;;;;4965560;28;20042;-85
2021/12/11 06:02:12;;;;;;;21.27;3.15;;;;;;;;;;4957609;28;20049;-84
2021/12/11 06:04:40;;;;;;;21.30;4.90;;;;;;;;;;4966014;28;20145;-84
2021/12/11 06:07:09;;;;;;;21.70;3.45;;;;;;;;;;4968536;28;20192;-84
2021/12/11 06:09:35;;;;;;;14.65;3.40;;;;;;;;;;4956671;28;20045;-85
2021/12/11 06:12:06;;;;;;;20.55;4.18;;;;;;;;;;4962390;28;20041;-84
2021/12/11 06:14:34;;;;;;;19.10;4.35;;;;;;;;;;4957763;28;20038;-85
2021/12/11 06:17:03;;;;;;;19.35;3.50;;;;;;;;;;4964935;28;20049;-85
2021/12/11 06:19:29;;;;;;;16.55;3.58;;;;;;;;;;4970900;28;20132;-85
2021/12/11 06:21:57;;;;;;;21.58;3.60;;;;;;;;;;4955529;28;20137;-85
2021/12/11 06:24:29;;;;;;;20.27;3.30;;;;;;;;;;4965162;28;20766;-85
2021/12/11 06:26:57;;;;;;;20.98;3.58;;;;;;;;;;4965024;28;23202;-84
2021/12/11 06:29:24;;;;;;;21.25;3.90;;;;;;;;;;4949937;28;20100;-86
2021/12/11 06:31:51;;;;;;;21.27;3.70;;;;;;;;;;4930621;28;20042;-86
2021/12/11 06:34:19;;;;;;;19.90;3.70;;;;;;;;;;4959395;28;20196;-85
2021/12/11 06:36:46;;;;;;;20.17;3.95;;;;;;;;;;4965085;28;20046;-85
2021/12/11 06:39:15;;;;;;;21.85;4.18;;;;;;;;;;4953780;28;20053;-85
2021/12/11 06:41:43;;;;;;;20.55;3.47;;;;;;;;;;4935381;28;20479;-84
2021/12/11 06:44:11;;;;;;;22.77;4.05;;;;;;;;;;4952901;28;20408;-86
2021/12/11 06:46:41;;;;;;;17.60;3.53;;;;;;;;;;4976024;28;20053;-86
2021/12/11 06:49:08;;;;;;;21.73;3.22;;;;;;;;;;4961156;28;20038;-88
2021/12/11 06:51:35;;;;;;;16.95;3.30;;;;;;;;;;4955386;28;20042;-87
2021/12/11 06:54:05;;;;;;;18.08;3.22;;;;;;;;;;4983214;28;20041;-88
2021/12/11 06:56:33;;;;;;;19.38;3.85;;;;;;;;;;4974847;28;20091;-86
2021/12/11 06:59:00;;;;;;;20.02;3.85;;;;;;;;;;4953044;28;20666;-85
2021/12/11 07:01:28;;;;;;;20.17;3.47;;;;;;;;;;4951370;28;20080;-85
2021/12/11 07:03:56;;;;;;;22.10;3.75;;;;;;;;;;4955087;28;20034;-86
2021/12/11 07:06:23;;;;;;;20.10;3.20;;;;;;;;;;4963846;28;20029;-87
2021/12/11 07:08:52;;;;;;;18.75;3.40;;;;;;;;;;4955595;28;20037;-86
2021/12/11 07:11:21;;;;;;;17.67;3.38;;;;;;;;;;4983539;28;20045;-86
2021/12/11 07:13:47;;;;;;;19.80;3.88;;;;;;;;;;4981703;28;21870;-85
2021/12/11 07:16:14;;;;;;;16.13;3.40;;;;;;;;;;4983014;28;20188;-87
2021/12/11 07:18:44;;;;;;;17.75;3.60;;;;;;;;;;4961376;28;20404;-86
2021/12/11 07:21:13;;;;;;;15.05;3.38;;;;;;;;;;4972551;28;20062;-86
2021/12/11 07:23:45;;;;;;;21.38;4.82;;;;;;;;;;4979756;28;20029;-87
2021/12/11 07:26:16;;;;;;;18.83;5.00;;;;;;;;;;4975759;28;20037;-84
2021/12/11 07:28:47;;;;;;;18.65;4.68;;;;;;;;;;4993454;28;20044;-87
2021/12/11 07:31:15;;;;;;;16.15;3.47;;;;;;;;;;4991762;28;20474;-87
2021/12/11 07:33:50;;;;;;;17.23;3.45;;;;;;;;;;4948404;28;20037;-86
2021/12/11 07:36:16;;;;;;;29.42;8.95;;;;;;;;;;4988281;28;20073;-87
2021/12/11 07:38:43;;;;;;;71.82;37.75;;;;;;;;;;4966052;28;20064;-86
2021/12/11 07:41:12;;;;;;;29.00;9.98;;;;;;;;;;4987429;28;20060;-87
2021/12/11 07:43:42;;;;;;;24.10;6.10;;;;;;;;;;4984397;28;20365;-88
2021/12/11 07:46:13;;;;;;;20.90;5.45;;;;;;;;;;4980053;28;20037;-86
2021/12/11 07:48:45;;;;;;;18.27;5.32;;;;;;;;;;4966128;28;20049;-88
2021/12/11 07:51:12;;;;;;;19.63;4.40;;;;;;;;;;4982342;28;20419;-88
2021/12/11 07:53:44;;;;;;;19.85;4.45;;;;;;;;;;4973466;28;20520;-90
2021/12/11 07:56:11;;;;;;;24.73;4.40;;;;;;;;;;4981029;28;20034;-89
2021/12/11 07:58:42;;;;;;;23.85;4.40;;;;;;;;;;4982875;28;20048;-88
2021/12/11 08:01:09;;;;;;;15.45;4.30;;;;;;;;;;4973745;28;20057;-88
2021/12/11 08:03:37;;;;;;;17.45;4.05;;;;;;;;;;4977812;28;20259;-88
2021/12/11 08:06:07;;;;;;;18.98;4.47;;;;;;;;;;4960326;28;20049;-89
2021/12/11 08:08:33;;;;;;;24.30;5.53;;;;;;;;;;4964374;28;20468;-89
2021/12/11 08:11:02;;;;;;;18.17;4.68;;;;;;;;;;4973073;28;20100;-88
2021/12/11 08:13:29;;;;;;;20.23;3.80;;;;;;;;;;4953371;28;20216;-87
2021/12/11 08:15:57;;;;;;;18.80;4.22;;;;;;;;;;4976480;28;21336;-87
2021/12/11 08:18:26;;;;;;;23.08;4.40;;;;;;;;;;4963153;28;20041;-86
2021/12/11 08:20:57;;;;;;;16.88;3.53;;;;;;;;;;4954367;28;20103;-88
2021/12/11 08:23:24;;;;;;;20.02;3.75;;;;;;;;;;4949157;28;20147;-86
2021/12/11 08:25:58;;;;;;;16.75;3.28;;;;;;;;;;4950916;28;20822;-87
2021/12/11 08:28:26;;;;;;;12.18;2.90;;;;;;;;;;4957514;28;20033;-86
2021/12/11 08:31:09;;;;;;;;;;;;;;;;;;;;;
2021/12/11 08:33:45;;;;;;;19.10;3.05;;;;;;;;;;4946840;28;20042;-86
2021/12/11 08:36:12;;;;;;;17.42;4.40;;;;;;;;;;4955022;28;20038;-87
2021/12/11 08:38:42;;;;;;;19.52;5.05;;;;;;;;;;4977763;28;20046;-87
2021/12/11 08:41:13;;;;;;;21.58;5.03;;;;;;;;;;4989952;28;20046;-89
2021/12/11 08:43:50;;;;;;;22.15;5.70;;;;;;;;;;4962614;28;20073;-89
2021/12/11 08:46:27;;;;;;;19.48;6.57;;;;;;;;;;4951106;28;20136;-85
2021/12/11 08:48:55;;;;;;;22.27;7.97;;;;;;;;;;4953254;28;20144;-87
2021/12/11 08:51:33;;;;;;;24.85;7.70;;;;;;;;;;4981327;28;21542;-87
2021/12/11 08:54:01;;;;;;;21.20;5.95;;;;;;;;;;4950657;28;20881;-87
2021/12/11 08:56:28;;;;;;;22.77;5.68;;;;;;;;;;4977551;28;20054;-88
2021/12/11 08:58:56;;;;;;;15.30;3.80;;;;;;;;;;4952746;28;20133;-88
2021/12/11 09:01:27;;;;;;;15.32;3.60;;;;;;;;;;4955768;28;20046;-88
2021/12/11 09:04:01;;;;;;;14.88;3.45;;;;;;;;;;4958929;28;20042;-89
2021/12/11 09:06:38;;;;;;;14.50;3.25;;;;;;;;;;4961904;28;20022;-88
2021/12/11 09:09:12;;;;;;;14.20;3.53;;;;;;;;;;4971576;28;20045;-88
2021/12/11 09:11:42;;;;;;;17.95;3.45;;;;;;;;;;4978398;28;20133;-87
2021/12/11 09:14:18;;;;;;;15.02;3.15;;;;;;;;;;4999450;28;20043;-88
2021/12/11 09:16:47;;;;;;;16.45;3.42;;;;;;;;;;4995196;28;20825;-88
2021/12/11 09:19:46;;;;;;;18.35;3.33;;;;;;;;;;4981670;28;20073;-88
2021/12/11 09:23:03;;;;;;;;;;;;;;;;;;;;;
2021/12/11 09:25:23;;;;;;;13.50;3.17;;;;;;;;;;4980108;28;20026;-88
2021/12/11 09:28:15;;;;;;;15.23;3.17;;;;;;;;;;4995078;28;20600;-89
2021/12/11 09:30:48;;;;;;;15.50;3.17;;;;;;;;;;4983377;28;20285;-88
2021/12/11 09:33:19;;;;;;;15.85;3.50;;;;;;;;;;4998602;28;20524;-88
2021/12/11 09:35:50;;;;;;;13.93;3.25;;;;;;;;;;4981783;28;20501;-88
2021/12/11 09:38:23;;;;;;;15.85;3.53;;;;;;;;;;4976684;28;20027;-88
2021/12/11 09:40:56;;;;;;;17.60;3.35;;;;;;;;;;4992562;28;20037;-88
2021/12/11 09:43:41;;;;;;;16.92;2.88;;;;;;;;;;4981500;28;20038;-87
2021/12/11 09:46:09;;;;;;;15.98;3.03;;;;;;;;;;4967603;28;20140;-88
2021/12/11 09:48:39;;;;;;;14.90;2.85;;;;;;;;;;4999003;28;20073;-87
2021/12/11 09:51:11;;;;;;;15.88;3.10;;;;;;;;;;4983276;28;20042;-87
2021/12/11 09:53:40;;;;;;;16.65;3.60;;;;;;;;;;4995881;28;20077;-88
2021/12/11 09:56:21;;;;;;;15.60;3.45;;;;;;;;;;5000681;28;20427;-88
2021/12/11 09:58:48;;;;;;;16.40;3.42;;;;;;;;;;5004803;28;20091;-88
2021/12/11 10:01:21;;;;;;;15.75;3.17;;;;;;;;;;4994004;28;20132;-89
2021/12/11 10:04:13;;;;;;;12.68;2.63;;;;;;;;;;4979112;28;20562;-87
2021/12/11 10:09:27;;;;;;;15.70;3.60;;;;;;;;;;4999461;28;20033;-87
2021/12/11 10:11:57;;;;;;;13.27;2.80;;;;;;;;;;4983532;28;20038;-88
2021/12/11 10:14:27;;;;;;;17.48;2.85;;;;;;;;;;4995252;28;20041;-87
2021/12/11 10:16:58;;;;;;;14.35;2.72;;;;;;;;;;4973499;28;20550;-87
2021/12/11 10:19:29;;;;;;;14.68;3.05;;;;;;;;;;5000731;28;20423;-86
2021/12/11 10:21:58;;;;;;;14.15;2.70;;;;;;;;;;4992078;28;20613;-87
2021/12/11 10:24:27;;;;;;;12.30;2.22;;;;;;;;;;4983465;28;20053;-87
2021/12/11 10:26:57;;;;;;;13.35;2.58;;;;;;;;;;4997689;28;20041;-88
2021/12/11 10:29:24;;;;;;;18.00;3.50;;;;;;;;;;5004717;28;20034;-87
2021/12/11 10:31:56;;;;;;;21.48;3.75;;;;;;;;;;5008058;28;20043;-88
2021/12/11 10:34:25;;;;;;;20.73;3.67;;;;;;;;;;4987033;28;20230;-88
2021/12/11 10:37:08;;;;;;;14.80;2.90;;;;;;;;;;5013020;28;20119;-88
2021/12/11 10:39:43;;;;;;;16.80;3.33;;;;;;;;;;5012511;28;20116;-87
2021/12/11 10:42:10;;;;;;;16.15;3.00;;;;;;;;;;5003435;28;20017;-88
2021/12/11 10:44:39;;;;;;;13.95;3.42;;;;;;;;;;4996927;28;20049;-88
2021/12/11 10:47:13;;;;;;;12.95;3.20;;;;;;;;;;5011535;28;20038;-87
2021/12/11 10:49:42;;;;;;;15.07;5.03;;;;;;;;;;5020583;28;20053;-87
2021/12/11 10:52:13;;;;;;;11.98;3.13;;;;;;;;;;5013755;28;20061;-88
2021/12/11 10:54:45;;;;;;;17.73;4.05;;;;;;;;;;4975789;28;20045;-87
2021/12/11 10:57:11;;;;;;;17.35;4.13;;;;;;;;;;4998124;28;20097;-87
2021/12/11 10:59:41;;;;;;;21.67;6.82;;;;;;;;;;4982211;28;20088;-86
2021/12/11 11:02:11;;;;;;;22.02;8.85;;;;;;;;;;4994627;28;20034;-87
2021/12/11 11:04:44;;;;;;;20.90;7.97;;;;;;;;;;4991017;28;20029;-88
2021/12/11 11:07:11;;;;;;;15.98;5.40;;;;;;;;;;4987649;28;20049;-86
2021/12/11 11:09:43;;;;;;;17.42;5.80;;;;;;;;;;4998882;28;20038;-87
2021/12/11 11:12:13;;;;;;;22.75;6.28;;;;;;;;;;5007823;28;20029;-88
2021/12/11 11:14:43;;;;;;;20.30;6.05;;;;;;;;;;5003846;28;20072;-89
2021/12/11 11:17:13;;;;;;;17.45;6.15;;;;;;;;;;4999311;28;20040;-86
2021/12/11 11:19:41;;;;;;;19.85;5.13;;;;;;;;;;4992176;28;20132;-86
2021/12/11 11:22:12;;;;;;;20.58;5.55;;;;;;;;;;4982723;28;20104;-86
2021/12/11 11:24:52;;;;;;;16.27;4.97;;;;;;;;;;4998412;28;20071;-87
2021/12/11 11:27:18;;;;;;;20.50;6.72;;;;;;;;;;4983924;28;20030;-87
2021/12/11 11:29:45;;;;;;;21.02;7.72;;;;;;;;;;4987228;28;20032;-87
2021/12/11 11:32:15;;;;;;;19.60;5.60;;;;;;;;;;4988799;28;20044;-88
2021/12/11 11:34:42;;;;;;;17.27;6.32;;;;;;;;;;4993273;28;20164;-87
2021/12/11 11:37:12;;;;;;;19.45;6.78;;;;;;;;;;5002515;28;20049;-87
2021/12/11 11:39:39;;;;;;;17.80;7.10;;;;;;;;;;4991159;28;21194;-86
2021/12/11 11:42:15;;;;;;;22.55;9.50;;;;;;;;;;5000772;28;20143;-86
2021/12/11 11:44:42;;;;;;;;;;;;;;;;;;4983159;28;20041;-88
2021/12/11 11:47:13;;;;;;;13.88;4.05;;;;;;;;;;4998966;28;19947;-88
2021/12/11 11:49:41;;;;;;;14.02;4.15;;;;;;;;;;4996473;28;20562;-85
2021/12/11 11:52:10;;;;;;;16.30;4.20;;;;;;;;;;4978373;28;20053;-89
2021/12/11 11:54:43;;;;;;;16.55;4.80;;;;;;;;;;4993588;28;20069;-89
2021/12/11 11:57:17;;;;;;;19.63;5.10;;;;;;;;;;4982895;28;20432;-88
2021/12/11 11:59:44;;;;;;;16.05;3.58;;;;;;;;;;4978544;28;20056;-87
2021/12/11 12:02:17;;;;;;;14.57;5.13;;;;;;;;;;4995733;28;20591;-88
2021/12/11 12:04:45;;;;;;;16.95;6.72;;;;;;;;;;4973079;28;20055;-86
2021/12/11 12:07:15;;;;;;;16.58;4.30;;;;;;;;;;4997661;28;20040;-88
2021/12/11 12:09:46;;;;;;;17.50;5.20;;;;;;;;;;4980307;28;20044;-87
2021/12/11 12:12:13;;;;;;;16.35;4.70;;;;;;;;;;4999074;28;20029;-88
2021/12/11 12:14:41;;;;;;;13.43;3.50;;;;;;;;;;4981508;28;20057;-87
2021/12/11 12:17:11;;;;;;;14.80;3.60;;;;;;;;;;4989575;28;20782;-88
2021/12/11 12:19:38;;;;;;;17.70;4.55;;;;;;;;;;4979452;28;20133;-88
2021/12/11 12:22:07;;;;;;;28.05;15.23;;;;;;;;;;4978862;28;20657;-87
2021/12/11 12:24:35;;;;;;;46.08;30.42;;;;;;;;;;4983482;28;20783;-85
2021/12/11 12:27:04;;;;;;;22.83;11.20;;;;;;;;;;4996214;28;20110;-87
2021/12/11 12:29:30;;;;;;;15.57;4.55;;;;;;;;;;4992046;28;20400;-86
2021/12/11 12:31:59;;;;;;;16.35;4.30;;;;;;;;;;4977509;28;20116;-86
2021/12/11 12:34:27;;;;;;;16.67;5.35;;;;;;;;;;4994190;28;20029;-85
2021/12/11 12:36:56;;;;;;;11.48;3.65;;;;;;;;;;4977907;28;20136;-86
2021/12/11 12:39:24;;;;;;;17.13;4.50;;;;;;;;;;4994580;28;20060;-87
2021/12/11 12:42:03;;;;;;;17.08;5.32;;;;;;;;;;4999886;28;20049;-86
2021/12/11 12:44:31;;;;;;;13.85;4.20;;;;;;;;;;4985221;28;20081;-86
2021/12/11 12:47:03;;;;;;;15.65;5.13;;;;;;;;;;4983740;28;20033;-87
2021/12/11 12:49:33;;;;;;;17.38;5.53;;;;;;;;;;5014747;28;20044;-86
2021/12/11 12:52:04;;;;;;;17.63;4.57;;;;;;;;;;5000644;28;21141;-85
2021/12/11 12:54:31;;;;;;;16.38;4.68;;;;;;;;;;5001406;28;20037;-86
2021/12/11 12:57:08;;;;;;;19.27;5.78;;;;;;;;;;5009634;28;20526;-85
2021/12/11 12:59:36;;;;;;;17.48;4.93;;;;;;;;;;5000785;28;20033;-87
2021/12/11 13:02:05;;;;;;;21.05;5.93;;;;;;;;;;4987340;28;20049;-87
2021/12/11 13:04:37;;;;;;;16.48;5.10;;;;;;;;;;4986201;28;20186;-86
2021/12/11 13:07:06;;;;;;;21.42;9.65;;;;;;;;;;4986709;28;21553;-87
2021/12/11 13:09:42;;;;;;;21.52;6.55;;;;;;;;;;5000363;28;20037;-86
2021/12/11 13:12:23;;;;;;;22.27;11.18;;;;;;;;;;5010075;28;20033;-86
2021/12/11 13:14:53;;;;;;;19.52;7.28;;;;;;;;;;4997096;28;20536;-86
2021/12/11 13:17:24;;;;;;;21.48;9.65;;;;;;;;;;4993741;28;20409;-87
2021/12/11 13:19:52;;;;;;;19.02;5.97;;;;;;;;;;5005215;28;20037;-86
2021/12/11 13:22:25;;;;;;;17.30;6.05;;;;;;;;;;5003649;28;20122;-91
2021/12/11 13:24:54;;;;;;;16.60;5.47;;;;;;;;;;5023552;28;20044;-95
2021/12/11 13:27:23;;;;;;;22.98;6.90;;;;;;;;;;5030094;28;20025;-91
2021/12/11 13:29:54;;;;;;;19.80;6.38;;;;;;;;;;5021009;28;20497;-91
2021/12/11 13:32:23;;;;;;;16.08;5.13;;;;;;;;;;5021855;28;20044;-90
2021/12/11 13:34:53;;;;;;;19.13;6.05;;;;;;;;;;5013276;28;20038;-90
2021/12/11 13:37:21;;;;;;;21.85;7.30;;;;;;;;;;5004299;28;20073;-92
2021/12/11 13:39:49;;;;;;;21.17;6.68;;;;;;;;;;4992189;28;20045;-92
2021/12/11 13:42:19;;;;;;;17.77;7.65;;;;;;;;;;4995385;28;20060;-91
2021/12/11 13:44:48;;;;;;;18.30;5.40;;;;;;;;;;4995424;28;20041;-90
2021/12/11 13:47:17;;;;;;;24.17;7.40;;;;;;;;;;4984230;28;20705;-91
2021/12/11 13:49:45;;;;;;;23.27;7.53;;;;;;;;;;4996559;28;20072;-91
2021/12/11 13:52:11;;;;;;;20.65;6.28;;;;;;;;;;4995855;28;20062;-92
2021/12/11 13:54:46;;;;;;;18.15;4.75;;;;;;;;;;5003765;28;20041;-90
2021/12/11 13:57:18;;;;;;;15.35;4.50;;;;;;;;;;4998301;28;20033;-92
2021/12/11 13:59:53;;;;;;;16.50;5.00;;;;;;;;;;4981776;28;20088;-89
2021/12/11 14:02:24;;;;;;;14.80;5.15;;;;;;;;;;4988990;28;20318;-91
2021/12/11 14:04:52;;;;;;;16.88;4.28;;;;;;;;;;4998495;28;20041;-92
2021/12/11 14:07:30;;;;;;;16.00;3.90;;;;;;;;;;4971156;28;20045;-88
2021/12/11 14:10:03;;;;;;;17.65;4.18;;;;;;;;;;4986565;28;20587;-90
2021/12/11 14:12:34;;;;;;;13.50;4.15;;;;;;;;;;4986403;28;20354;-92
2021/12/11 14:15:03;;;;;;;17.27;4.57;;;;;;;;;;4999603;28;20104;-91
2021/12/11 14:17:31;;;;;;;15.77;4.70;;;;;;;;;;4997865;28;20034;-89
2021/12/11 14:19:57;;;;;;;19.30;5.03;;;;;;;;;;4993423;28;20066;-89
2021/12/11 14:22:25;;;;;;;18.08;5.10;;;;;;;;;;4988545;28;20045;-92
2021/12/11 14:24:52;;;;;;;18.35;6.65;;;;;;;;;;4980499;28;20033;-89
2021/12/11 14:27:19;;;;;;;16.15;4.97;;;;;;;;;;4994817;28;20029;-91
2021/12/11 14:29:49;;;;;;;19.08;5.65;;;;;;;;;;5003605;28;20041;-89
2021/12/11 14:32:17;;;;;;;15.27;4.03;;;;;;;;;;4982263;28;20065;-90
2021/12/11 14:34:44;;;;;;;15.05;4.18;;;;;;;;;;4990153;28;20149;-92
2021/12/11 14:37:11;;;;;;;18.05;4.07;;;;;;;;;;4998217;28;20064;-93
2021/12/11 14:39:45;;;;;;;18.92;4.55;;;;;;;;;;4993937;28;20084;-91
2021/12/11 14:42:12;;;;;;;17.45;4.63;;;;;;;;;;5009212;28;20049;-92
2021/12/11 14:44:39;;;;;;;21.52;5.60;;;;;;;;;;5010958;28;20044;-91
2021/12/11 14:47:07;;;;;;;19.45;4.85;;;;;;;;;;5020492;28;20034;-92
2021/12/11 14:49:40;;;;;;;18.55;4.72;;;;;;;;;;5007332;28;20119;-91
2021/12/11 14:52:08;;;;;;;20.35;5.47;;;;;;;;;;5022922;28;20044;-92
2021/12/11 14:54:38;;;;;;;17.50;5.30;;;;;;;;;;5028723;28;20048;-91
2021/12/11 14:57:12;;;;;;;23.20;8.13;;;;;;;;;;5024156;28;20045;-92
2021/12/11 14:59:53;;;;;;;20.23;8.05;;;;;;;;;;4997091;28;20041;-93
2021/12/11 15:02:24;;;;;;;19.23;7.20;;;;;;;;;;5003161;28;20106;-92
2021/12/11 15:04:53;;;;;;;22.50;9.63;;;;;;;;;;5000291;28;20068;-92
2021/12/11 15:07:21;;;;;;;19.50;6.68;;;;;;;;;;5003125;28;20033;-91
2021/12/11 15:09:49;;;;;;;15.65;5.95;;;;;;;;;;4996397;28;20037;-92